createdAt,value
2023-04-17T00:01:07.949Z,44.96
2023-04-17T00:03:39.848Z,43.63
2023-04-17T00:06:11.012Z,45.52
2023-04-17T00:08:42.237Z,46.12
2023-04-17T00:11:12.638Z,46.04
2023-04-17T00:13:43.335Z,46.99
2023-04-17T00:16:15.264Z,46.26
2023-04-17T00:18:46.403Z,46.75
2023-04-17T00:21:17.089Z,46.05
2023-04-17T00:23:49.455Z,46.53
2023-04-17T00:26:21.108Z,47.01
2023-04-17T00:28:54.463Z,46.96
2023-04-17T00:31:25.532Z,45.35
2023-04-17T00:33:56.264Z,45.24
2023-04-17T00:36:26.887Z,45.94
2023-04-17T00:38:57.252Z,45.32
2023-04-17T00:41:27.983Z,45.13
2023-04-17T00:43:59.153Z,45.34
2023-04-17T00:46:29.941Z,45.86
2023-04-17T00:49:01.455Z,45.54
2023-04-17T00:51:33.056Z,45.12
2023-04-17T00:54:03.740Z,45.43
2023-04-17T00:56:35.493Z,45.68
2023-04-17T00:59:08.133Z,44.39
2023-04-17T01:01:40.969Z,45.75
2023-04-17T01:04:14.750Z,43.95
2023-04-17T01:06:44.763Z,45.25
2023-04-17T01:09:16.335Z,44.70
2023-04-17T01:11:46.957Z,44.44
2023-04-17T01:14:18.177Z,44.19
2023-04-17T01:16:48.654Z,45.08
2023-04-17T01:19:20.147Z,45.09
2023-04-17T01:21:50.568Z,43.58
2023-04-17T01:24:21.066Z,43.18
2023-04-17T01:26:51.968Z,44.17
2023-04-17T01:29:24.867Z,43.69
2023-04-17T01:31:55.297Z,43.66
2023-04-17T01:34:25.570Z,43.48
2023-04-17T01:36:59.365Z,43.95
2023-04-17T01:39:30.102Z,43.95
2023-04-17T01:42:00.743Z,44.23
2023-04-17T01:44:32.020Z,44.10
2023-04-17T01:47:02.656Z,43.57
2023-04-17T01:49:33.514Z,43.94
2023-04-17T01:52:05.126Z,44.78
2023-04-17T01:54:36.141Z,43.72
2023-04-17T01:57:07.086Z,43.61
2023-04-17T01:59:38.508Z,43.25
2023-04-17T02:02:09.300Z,42.18
2023-04-17T02:04:39.911Z,42.79
2023-04-17T02:07:10.579Z,42.96
2023-04-17T02:09:40.986Z,41.96
2023-04-17T02:12:11.907Z,41.78
2023-04-17T02:14:42.816Z,42.58
2023-04-17T02:17:13.481Z,42.05
2023-04-17T02:19:43.945Z,41.71
2023-04-17T02:22:14.274Z,42.25
2023-04-17T02:24:44.656Z,42.45
2023-04-17T02:27:15.794Z,42.42
2023-04-17T02:29:46.508Z,42.52
2023-04-17T02:32:20.561Z,43.18
2023-04-17T02:34:51.219Z,42.22
2023-04-17T02:37:25.181Z,43.12
2023-04-17T02:39:57.542Z,42.21
2023-04-17T02:42:28.860Z,42.00
2023-04-17T02:44:59.497Z,41.63
2023-04-17T02:47:29.999Z,42.80
2023-04-17T02:50:01.968Z,42.36
2023-04-17T02:52:39.281Z,42.47
2023-04-17T02:55:11.229Z,42.46
2023-04-17T02:57:43.534Z,41.42
2023-04-17T03:00:17.282Z,41.97
2023-04-17T03:02:48.492Z,42.14
2023-04-17T03:05:31.663Z,41.85
2023-04-17T03:08:03.433Z,42.15
2023-04-17T03:10:39.406Z,42.05
2023-04-17T03:13:09.856Z,41.34
2023-04-17T03:15:40.471Z,42.14
2023-04-17T03:18:10.966Z,41.51
2023-04-17T03:20:41.361Z,41.61
2023-04-17T03:23:12.084Z,41.16
2023-04-17T03:25:42.637Z,41.53
2023-04-17T03:28:13.656Z,41.14
2023-04-17T03:30:44.144Z,40.88
2023-04-17T03:33:14.691Z,41.78
2023-04-17T03:35:45.772Z,40.97
2023-04-17T03:38:16.103Z,41.02
2023-04-17T03:40:47.187Z,41.21
2023-04-17T03:43:18.090Z,41.51
2023-04-17T03:45:48.836Z,41.47
2023-04-17T03:48:19.794Z,41.03
2023-04-17T03:50:53.044Z,40.63
2023-04-17T03:53:25.411Z,40.48
2023-04-17T03:55:56.971Z,41.08
2023-04-17T03:58:34.737Z,40.29
2023-04-17T04:01:06.262Z,40.97
2023-04-17T04:03:40.581Z,40.64
2023-04-17T04:06:11.510Z,40.13
2023-04-17T04:08:42.028Z,40.35
2023-04-17T04:11:12.574Z,40.65
2023-04-17T04:13:43.310Z,40.48
2023-04-17T04:16:14.752Z,40.76
2023-04-17T04:18:45.607Z,40.30
2023-04-17T04:21:18.239Z,40.20
2023-04-17T04:23:49.078Z,40.37
2023-04-17T04:26:23.375Z,39.92
2023-04-17T04:28:58.154Z,39.81
2023-04-17T04:31:39.376Z,39.63
2023-04-17T04:34:11.261Z,39.27
2023-04-17T04:36:51.725Z,39.73
2023-04-17T04:39:35.497Z,39.75
2023-04-17T04:42:07.333Z,39.78
2023-04-17T04:44:50.032Z,40.02
2023-04-17T04:47:22.375Z,39.78
2023-04-17T04:49:53.760Z,39.77
2023-04-17T04:52:26.716Z,40.08
2023-04-17T04:57:56.613Z,41.47
2023-04-17T05:00:27.986Z,41.89
2023-04-17T05:03:01.145Z,41.60
2023-04-17T05:05:41.983Z,42.00
2023-04-17T05:11:08.739Z,42.99
2023-04-17T05:13:39.858Z,43.14
2023-04-17T05:16:17.327Z,42.71
2023-04-17T05:18:49.527Z,43.25
2023-04-17T05:21:27.589Z,43.64
2023-04-17T05:24:00.957Z,44.43
2023-04-17T05:26:32.177Z,43.87
2023-04-17T05:29:03.082Z,44.09
2023-04-17T05:31:36.251Z,44.69
2023-04-17T05:34:13.759Z,43.93
2023-04-17T05:36:45.615Z,44.40
2023-04-17T05:39:17.099Z,44.61
2023-04-17T05:41:47.619Z,44.71
2023-04-17T05:47:04.905Z,44.93
2023-04-17T05:49:35.505Z,44.02
2023-04-17T05:52:06.247Z,44.51
2023-04-17T05:54:41.751Z,44.29
2023-04-17T05:57:12.292Z,44.03
2023-04-17T05:59:43.259Z,43.11
2023-04-17T06:02:14.794Z,43.25
2023-04-17T06:04:47.279Z,42.99
2023-04-17T06:07:17.930Z,42.94
2023-04-17T06:09:48.405Z,42.77
2023-04-17T06:12:18.773Z,42.32
2023-04-17T06:14:50.110Z,41.84
2023-04-17T06:17:26.003Z,41.85
2023-04-17T06:19:57.592Z,40.23
2023-04-17T06:22:29.467Z,40.59
2023-04-17T06:25:00.166Z,40.20
2023-04-17T06:27:30.465Z,40.31
2023-04-17T06:30:00.931Z,40.46
2023-04-17T06:32:33.418Z,39.95
2023-04-17T06:35:04.097Z,40.02
2023-04-17T06:37:54.473Z,40.16
2023-04-17T06:40:25.319Z,40.03
2023-04-17T06:42:56.209Z,39.83
2023-04-17T06:45:30.514Z,39.59
2023-04-17T06:48:00.921Z,39.66
2023-04-17T06:50:31.474Z,39.56
2023-04-17T06:53:01.896Z,39.24
2023-04-17T06:55:32.262Z,39.26
2023-04-17T06:58:03.089Z,38.64
2023-04-17T07:00:33.378Z,38.83
2023-04-17T07:03:04.726Z,38.92
2023-04-17T07:05:35.237Z,39.27
2023-04-17T07:08:05.792Z,38.87
2023-04-17T07:10:39.967Z,39.11
2023-04-17T07:13:10.414Z,38.53
2023-04-17T07:15:40.925Z,38.53
2023-04-17T07:18:12.230Z,38.70
2023-04-17T07:20:42.613Z,38.61
2023-04-17T07:23:13.277Z,38.76
2023-04-17T07:25:43.673Z,38.34
2023-04-17T07:28:14.103Z,38.55
2023-04-17T07:33:27.524Z,38.11
2023-04-17T07:35:57.946Z,38.29
2023-04-17T07:38:28.592Z,38.39
2023-04-17T07:40:58.981Z,37.70
2023-04-17T07:43:30.004Z,37.83
2023-04-17T07:46:00.710Z,37.84
2023-04-17T07:48:31.109Z,37.82
2023-04-17T07:51:03.076Z,38.14
2023-04-17T07:53:33.654Z,37.98
2023-04-17T07:56:04.183Z,37.85
2023-04-17T07:58:37.209Z,38.02
2023-04-17T08:03:53.381Z,37.49
2023-04-17T08:06:23.414Z,37.73
2023-04-17T08:08:53.709Z,37.67
2023-04-17T08:11:24.125Z,37.81
2023-04-17T08:13:55.112Z,37.74
2023-04-17T08:16:25.592Z,37.34
2023-04-17T08:24:22.214Z,37.08
2023-04-17T08:26:52.572Z,37.39
2023-04-17T08:29:22.988Z,37.54
2023-04-17T08:32:06.856Z,37.50
2023-04-17T08:37:29.648Z,37.26
2023-04-17T08:40:00.068Z,37.38
2023-04-17T08:42:33.967Z,37.13
2023-04-17T08:45:10.739Z,36.72
2023-04-17T08:47:45.415Z,36.36
2023-04-17T08:50:21.078Z,36.70
2023-04-17T08:55:38.027Z,36.76
2023-04-17T08:58:10.643Z,37.13
2023-04-17T09:00:46.787Z,36.93
2023-04-17T09:03:18.372Z,36.43
2023-04-17T09:05:49.976Z,36.79
2023-04-17T09:08:27.731Z,36.60
2023-04-17T09:10:58.490Z,37.30
2023-04-17T09:13:30.891Z,37.59
2023-04-17T09:16:10.577Z,36.84
2023-04-17T09:18:44.151Z,37.55
2023-04-17T09:21:17.821Z,37.26
2023-04-17T09:23:51.944Z,36.61
2023-04-17T09:26:27.020Z,37.12
2023-04-17T09:29:13.066Z,36.51
2023-04-17T09:31:45.953Z,37.18
2023-04-17T09:34:17.972Z,37.20
2023-04-17T09:36:48.216Z,36.79
2023-04-17T09:39:27.155Z,36.94
2023-04-17T09:42:08.128Z,36.63
2023-04-17T09:44:39.472Z,36.86
2023-04-17T09:47:11.824Z,36.72
2023-04-17T09:49:44.211Z,36.94
2023-04-17T09:52:15.162Z,37.25
2023-04-17T09:54:47.921Z,36.57
2023-04-17T09:57:19.989Z,36.60
2023-04-17T09:59:51.503Z,36.82
2023-04-17T10:02:23.126Z,37.16
2023-04-17T10:04:56.210Z,36.51
2023-04-17T10:07:27.541Z,36.70
2023-04-17T10:09:58.124Z,36.68
2023-04-17T10:15:17.087Z,36.97
2023-04-17T10:23:32.798Z,36.63
2023-04-17T10:26:27.278Z,37.08
2023-04-17T10:29:01.474Z,37.00
2023-04-17T10:32:08.758Z,37.15
2023-04-17T10:34:43.187Z,37.16
2023-04-17T10:37:18.673Z,36.41
2023-04-17T10:39:55.818Z,36.22
2023-04-17T10:42:27.364Z,37.13
2023-04-17T10:45:07.418Z,36.78
2023-04-17T10:47:39.459Z,36.65
2023-04-17T10:50:11.665Z,36.75
2023-04-17T10:52:44.568Z,36.92
2023-04-17T10:55:26.724Z,36.51
2023-04-17T10:58:01.329Z,36.07
2023-04-17T11:00:40.379Z,36.49
2023-04-17T11:03:10.828Z,36.42
2023-04-17T11:05:49.852Z,36.95
2023-04-17T11:08:21.765Z,36.24
2023-04-17T11:10:55.847Z,36.24
2023-04-17T11:13:26.947Z,36.68
2023-04-17T11:15:57.734Z,37.12
2023-04-17T11:18:28.198Z,36.38
2023-04-17T11:20:59.704Z,36.76
2023-04-17T11:23:35.590Z,36.45
2023-04-17T11:26:05.965Z,36.78
2023-04-17T11:28:40.822Z,36.32
2023-04-17T11:31:15.427Z,36.69
2023-04-17T11:33:49.587Z,37.10
2023-04-17T11:36:20.049Z,36.02
2023-04-17T11:41:41.860Z,36.37
2023-04-17T11:44:15.602Z,36.86
2023-04-17T11:46:50.998Z,36.42
2023-04-17T11:49:40.961Z,36.60
2023-04-17T11:52:12.641Z,36.59
2023-04-17T11:54:43.199Z,36.37
2023-04-17T11:57:17.356Z,36.60
2023-04-17T11:59:47.892Z,36.96
2023-04-17T12:02:18.391Z,36.22
2023-04-17T12:04:48.998Z,36.61
2023-04-17T12:07:26.388Z,36.23
2023-04-17T12:10:00.004Z,36.38
2023-04-17T12:12:32.621Z,36.12
2023-04-17T12:15:03.259Z,36.75
2023-04-17T12:17:34.206Z,37.13
2023-04-17T12:20:05.811Z,36.47
2023-04-17T12:22:36.271Z,36.31
2023-04-17T12:25:07.368Z,36.54
2023-04-17T12:30:21.185Z,36.81
2023-04-17T12:32:53.647Z,37.10
2023-04-17T12:35:25.640Z,36.55
2023-04-17T12:43:27.745Z,36.63
2023-04-17T12:45:59.909Z,36.26
2023-04-17T12:48:32.903Z,36.06
2023-04-17T12:51:03.244Z,36.42
2023-04-17T13:01:44.101Z,36.34
2023-04-17T13:04:15.073Z,36.93
2023-04-17T13:06:45.879Z,37.08
2023-04-17T13:09:18.460Z,36.57
2023-04-17T13:11:48.859Z,36.98
2023-04-17T13:14:19.287Z,36.52
2023-04-17T13:16:52.005Z,36.79
2023-04-17T13:19:22.460Z,37.14
2023-04-17T13:21:56.362Z,36.77
2023-04-17T13:24:27.586Z,36.09
2023-04-17T13:27:02.546Z,36.81
2023-04-17T13:29:33.413Z,37.23
2023-04-17T13:32:04.051Z,36.09
2023-04-17T13:34:35.342Z,36.38
2023-04-17T13:37:06.003Z,36.72
2023-04-17T13:39:37.462Z,36.34
2023-04-17T13:42:08.701Z,36.09
2023-04-17T13:44:39.110Z,36.58
2023-04-17T13:47:09.427Z,36.38
2023-04-17T13:49:39.812Z,36.86
2023-04-17T13:52:10.333Z,37.16
2023-04-17T13:54:40.891Z,36.44
2023-04-17T13:57:11.943Z,36.11
2023-04-17T13:59:42.570Z,36.04
2023-04-17T14:02:13.156Z,36.96
2023-04-17T14:04:43.664Z,36.33
2023-04-17T14:07:16.878Z,36.47
2023-04-17T14:09:47.393Z,37.02
2023-04-17T14:12:22.201Z,36.42
2023-04-17T14:14:52.786Z,36.51
2023-04-17T14:17:23.076Z,36.90
2023-04-17T14:19:54.473Z,36.27
2023-04-17T14:22:24.919Z,36.99
2023-04-17T14:24:55.288Z,36.82
2023-04-17T14:27:25.644Z,36.78
2023-04-17T14:29:57.502Z,36.54
2023-04-17T14:32:28.689Z,36.17
2023-04-17T14:34:59.341Z,37.05
2023-04-17T14:37:30.188Z,37.23
2023-04-17T14:40:01.471Z,36.17
2023-04-17T14:42:38.066Z,36.41
2023-04-17T14:45:17.714Z,36.31
2023-04-17T14:47:48.386Z,36.85
2023-04-17T14:50:18.929Z,36.68
2023-04-17T14:52:49.364Z,36.45
2023-04-17T14:55:19.596Z,37.27
2023-04-17T14:57:50.377Z,36.10
2023-04-17T15:00:22.395Z,36.32
2023-04-17T15:02:53.126Z,36.90
2023-04-17T15:05:24.031Z,36.19
2023-04-17T15:07:55.191Z,36.61
2023-04-17T15:10:26.595Z,36.78
2023-04-17T15:13:01.882Z,36.65
2023-04-17T15:15:32.260Z,36.90
2023-04-17T15:18:03.427Z,36.38
2023-04-17T15:20:36.338Z,36.76
2023-04-17T15:23:06.446Z,36.39
2023-04-17T15:25:36.707Z,36.42
2023-04-17T15:28:07.322Z,36.46
2023-04-17T15:30:38.068Z,36.30
2023-04-17T15:35:59.271Z,36.97
2023-04-17T15:38:30.107Z,36.70
2023-04-17T15:41:00.559Z,35.87
2023-04-17T15:43:31.813Z,36.34
2023-04-17T15:46:03.776Z,36.14
2023-04-17T15:48:34.447Z,36.89
2023-04-17T15:51:05.827Z,36.34
2023-04-17T15:53:36.051Z,36.48
2023-04-17T15:56:08.306Z,36.86
2023-04-17T15:58:38.803Z,37.14
2023-04-17T16:01:09.424Z,36.55
2023-04-17T16:03:39.911Z,36.70
2023-04-17T16:06:12.618Z,36.48
2023-04-17T16:08:43.221Z,36.72
2023-04-17T16:11:14.566Z,36.22
2023-04-17T16:13:44.972Z,36.60
2023-04-17T16:16:15.360Z,36.49
2023-04-17T16:18:49.222Z,36.72
2023-04-17T16:21:19.815Z,36.85
2023-04-17T16:23:50.987Z,36.13
2023-04-17T16:26:21.639Z,36.67
2023-04-17T16:28:52.167Z,36.83
2023-04-17T16:31:23.931Z,36.17
2023-04-17T16:33:54.920Z,36.50
2023-04-17T16:36:25.337Z,36.02
2023-04-17T16:38:56.661Z,35.67
2023-04-17T16:41:28.251Z,36.64
2023-04-17T16:44:00.337Z,36.59
2023-04-17T16:46:45.640Z,36.20
2023-04-17T16:49:21.890Z,36.81
2023-04-17T16:51:52.445Z,36.73
2023-04-17T16:54:23.207Z,35.90
2023-04-17T16:56:54.311Z,36.68
2023-04-17T16:59:25.650Z,35.85
2023-04-17T17:01:56.496Z,36.70
2023-04-17T17:04:27.370Z,36.28
2023-04-17T17:06:58.042Z,35.90
2023-04-17T17:09:28.816Z,36.28
2023-04-17T17:11:59.445Z,36.74
2023-04-17T17:14:30.411Z,36.11
2023-04-17T17:17:01.483Z,36.40
2023-04-17T17:19:32.052Z,36.58
2023-04-17T17:22:02.519Z,36.13
2023-04-17T17:24:33.001Z,36.32
2023-04-17T17:27:04.599Z,36.15
2023-04-17T17:29:35.499Z,36.24
2023-04-17T17:32:06.015Z,36.60
2023-04-17T17:34:36.295Z,35.73
2023-04-17T17:37:06.777Z,36.62
2023-04-17T17:39:36.971Z,36.49
2023-04-17T17:42:10.297Z,36.45
2023-04-17T17:44:41.124Z,36.54
2023-04-17T17:47:11.545Z,36.25
2023-04-17T17:49:42.140Z,36.21
2023-04-17T17:52:12.664Z,36.10
2023-04-17T17:54:44.242Z,36.22
2023-04-17T17:57:14.944Z,36.61
2023-04-17T17:59:46.496Z,36.05
2023-04-17T18:02:17.236Z,36.42
2023-04-17T18:04:49.634Z,36.32
2023-04-17T18:07:20.235Z,36.48
2023-04-17T18:09:51.649Z,36.40
2023-04-17T18:12:22.276Z,35.67
2023-04-17T18:14:52.640Z,36.05
2023-04-17T18:17:23.195Z,36.44
2023-04-17T18:19:53.728Z,36.57
2023-04-17T18:22:23.859Z,36.18
2023-04-17T18:24:57.888Z,36.57
2023-04-17T18:27:28.701Z,36.36
2023-04-17T18:32:43.731Z,36.40
2023-04-17T18:35:14.262Z,36.19
2023-04-17T18:37:46.765Z,36.15
2023-04-17T18:40:17.499Z,36.67
2023-04-17T18:42:47.997Z,37.00
2023-04-17T18:45:18.384Z,36.39
2023-04-17T18:47:48.816Z,36.15
2023-04-17T18:50:19.529Z,36.21
2023-04-17T18:52:51.083Z,36.14
2023-04-17T18:55:21.962Z,36.34
2023-04-17T18:57:52.391Z,37.25
2023-04-17T19:00:22.663Z,36.79
2023-04-17T19:02:53.851Z,36.81
2023-04-17T19:05:24.757Z,36.78
2023-04-17T19:07:55.525Z,36.51
2023-04-17T19:10:26.593Z,37.38
2023-04-17T19:12:56.984Z,36.95
2023-04-17T19:15:27.654Z,36.14
2023-04-17T19:17:58.447Z,36.51
2023-04-17T19:20:29.549Z,36.95
2023-04-17T19:23:00.916Z,36.57
2023-04-17T19:25:31.835Z,37.06
2023-04-17T19:28:02.563Z,36.76
2023-04-17T19:30:33.020Z,37.09
2023-04-17T19:33:03.252Z,36.59
2023-04-17T19:35:34.285Z,37.11
2023-04-17T19:38:04.715Z,36.53
2023-04-17T19:40:35.461Z,36.84
2023-04-17T19:43:05.852Z,36.58
2023-04-17T19:45:37.351Z,36.75
2023-04-17T19:48:08.478Z,37.04
2023-04-17T19:50:38.868Z,37.59
2023-04-17T19:53:09.272Z,36.79
2023-04-17T19:55:43.006Z,36.55
2023-04-17T19:58:13.355Z,36.96
2023-04-17T20:00:43.780Z,37.45
2023-04-17T20:03:14.277Z,37.08
2023-04-17T20:05:46.275Z,36.87
2023-04-17T20:08:17.124Z,37.11
2023-04-17T20:10:47.610Z,37.39
2023-04-17T20:13:18.052Z,37.04
2023-04-17T20:15:48.436Z,37.12
2023-04-17T20:18:20.164Z,37.34
2023-04-17T20:20:50.694Z,37.69
2023-04-17T20:23:21.178Z,37.92
2023-04-17T20:25:52.302Z,37.02
2023-04-17T20:28:22.763Z,37.53
2023-04-17T20:30:53.398Z,37.23
2023-04-17T20:33:23.815Z,36.75
2023-04-17T20:35:54.211Z,37.31
2023-04-17T20:38:25.437Z,37.64
2023-04-17T20:43:38.933Z,37.31
2023-04-17T20:46:09.537Z,37.14
2023-04-17T20:48:40.214Z,37.79
2023-04-17T20:51:10.592Z,37.67
2023-04-17T20:53:40.974Z,37.93
2023-04-17T20:56:11.618Z,38.17
2023-04-17T20:58:42.053Z,38.35
2023-04-17T21:01:12.576Z,39.02
2023-04-17T21:09:13.292Z,38.48
2023-04-17T21:11:43.855Z,38.77
2023-04-17T21:14:16.533Z,39.64
2023-04-17T21:16:47.694Z,40.19
2023-04-17T21:19:18.036Z,39.70
2023-04-17T21:21:50.010Z,39.98
2023-04-17T21:24:20.544Z,39.38
2023-04-17T21:26:50.977Z,40.48
2023-04-17T21:29:21.344Z,40.51
2023-04-17T21:31:51.846Z,40.85
2023-04-17T21:34:22.708Z,41.04
2023-04-17T21:39:39.538Z,41.35
2023-04-17T21:42:11.292Z,40.31
2023-04-17T21:44:42.382Z,40.72
2023-04-17T21:47:12.976Z,40.24
2023-04-17T21:49:43.468Z,41.81
2023-04-17T21:52:14.609Z,41.22
2023-04-17T21:54:45.661Z,41.17
2023-04-17T21:57:16.595Z,41.10
2023-04-17T21:59:46.957Z,41.57
2023-04-17T22:02:17.388Z,41.08
2023-04-17T22:04:48.598Z,41.66
2023-04-17T22:07:19.940Z,42.34
2023-04-17T22:09:50.876Z,42.04
2023-04-17T22:12:22.312Z,42.41
2023-04-17T22:14:52.696Z,41.55
2023-04-17T22:17:23.068Z,42.28
2023-04-17T22:19:53.403Z,42.31
2023-04-17T22:22:24.108Z,42.25
2023-04-17T22:24:54.689Z,42.65
2023-04-17T22:27:25.027Z,43.32
2023-04-17T22:29:55.416Z,42.50
2023-04-17T22:32:26.490Z,42.52
2023-04-17T22:34:56.736Z,43.30
2023-04-17T22:37:27.068Z,43.33
2023-04-17T22:39:59.906Z,43.62
2023-04-17T22:42:30.301Z,42.64
2023-04-17T22:45:00.760Z,41.79
2023-04-17T22:47:31.189Z,42.47
2023-04-17T22:50:01.578Z,42.56
2023-04-17T22:52:32.061Z,42.29
2023-04-17T22:55:05.194Z,42.40
2023-04-17T22:57:36.666Z,43.17
2023-04-17T23:00:09.462Z,42.59
2023-04-17T23:02:40.230Z,43.13
2023-04-17T23:05:11.540Z,43.30
2023-04-17T23:07:42.820Z,43.37
2023-04-17T23:10:25.226Z,42.44
2023-04-17T23:12:55.595Z,42.72
2023-04-17T23:15:26.904Z,43.07
2023-04-17T23:17:57.317Z,43.59
2023-04-17T23:20:28.624Z,44.50
2023-04-17T23:22:59.170Z,44.22
2023-04-17T23:25:29.549Z,43.48
2023-04-17T23:27:59.914Z,43.47
2023-04-17T23:30:30.284Z,43.96
2023-04-17T23:33:00.746Z,43.76
2023-04-17T23:35:31.413Z,43.40
2023-04-17T23:38:01.883Z,44.32
2023-04-17T23:40:34.138Z,44.65
2023-04-17T23:43:04.816Z,44.58
2023-04-17T23:45:35.236Z,44.31
2023-04-17T23:48:05.749Z,44.92
2023-04-17T23:50:36.305Z,44.94
2023-04-17T23:53:06.804Z,45.12
2023-04-17T23:55:37.521Z,44.72
2023-04-17T23:58:08.904Z,45.75
